Huvudsida
METAR-TAF:

METAR-TAF

Flygplatser :

Røsts flygplats

Røst, Norge

latitud: 67-31N, longitud: 012-06E, höjd: 4 m

Aktuellt väderrapport

Denna rapport gjordes för 3 timmar och 0 minuter sedan, klockan 11:50 UTC
Vind 20 kt från syd/sydväst
Temperatur 11°C
Fuktighet 71%
Tryck 1017 hPa
Sikt 10 km eller mer
Inga moln under 1 500 m eller inga cumulonimbus

METAR: ENRS 231150Z 21020KT CAVOK 11/06 Q1017

Tid: 16:50 (14:50 UTC)


TAF: saknas

Aktuella väderrapporter och prognoser från 4000 flygplatser (METAR- och TAF-rapporter).

De tillgängliga stationerna syns som gula och röda prickar på kartan.

För musen över prickarna för att se namnen på stationerna.

Klicka sedan för att få väderrapporter och prognoser.

För att ändra kartan: Klicka på de gröna knapparna med ett svart kors på för att zooma in; den gröna knappen med ett streck på för att zooma ut; eller på de gröna pilarna för angränsande kartor.


METAR-TAF: